Flight Track Log - Related Links

Times and Time Zones

All times are in EDT time to prevent confusion due to time zone crossing. See the CES9734 flight status page for this flight to view local times or setup timezone preferences in your user account.

Time Position Orientation Groundspeed Altitude Reporting Facility
EDT Latitude Longitude Course Direction KTS MPH feet Rate Location/Type
Wed 07:10:00 PM 22.8383 113.0567 286° West  Level Estimated
Wed 07:11:00 PM 22.8664 112.9485 286° West  Level Estimated
Wed 07:12:00 PM 22.8944 112.8403 286° West  Level Estimated
Wed 07:13:00 PM 22.9224 112.7321 286° West  Level Estimated
Wed 07:14:00 PM 22.9503 112.6238 286° West  Level Estimated
Wed 07:15:00 PM 22.9781 112.5155 286° West  Level Estimated
Wed 07:16:00 PM 23.0058 112.4072 286° West  Level Estimated
Wed 07:17:00 PM 23.0335 112.2988 286° West  Level Estimated
Wed 07:18:00 PM 23.0611 112.1903 285° West  Level Estimated
Wed 07:19:00 PM 23.0886 112.0818 285° West  Level Estimated
Wed 07:20:00 PM 23.1160 111.9733 285° West  Level Estimated
Wed 07:21:00 PM 23.1434 111.8647 285° West  Level Estimated
Wed 07:22:00 PM 23.1707 111.7561 285° West  Level Estimated
Wed 07:23:00 PM 23.1979 111.6474 285° West  Level Estimated
Wed 07:24:00 PM 23.2251 111.5387 285° West  Level Estimated
Wed 07:25:00 PM 23.2521 111.4299 285° West  Level Estimated
Wed 07:26:00 PM 23.2791 111.3211 285° West  Level Estimated
Wed 07:27:00 PM 23.3060 111.2122 285° West  Level Estimated
Wed 07:28:00 PM 23.3329 111.1033 285° West  Level Estimated
Wed 07:29:00 PM 23.3597 110.9944 285° West  Level Estimated
Wed 07:30:00 PM 23.3864 110.8854 285° West  Level Estimated
Wed 07:31:00 PM 23.4130 110.7764 285° West  Level Estimated
Wed 07:32:00 PM 23.4395 110.6673 285° West  Level Estimated
Wed 07:33:00 PM 23.4660 110.5582 285° West  Level Estimated
Wed 07:34:00 PM 23.4924 110.4491 285° West  Level Estimated
Wed 07:35:00 PM 23.5187 110.3399 285° West  Level Estimated
Wed 07:36:00 PM 23.5450 110.2306 285° West  Level Estimated
Wed 07:37:00 PM 23.5711 110.1213 285° West  Level Estimated
Wed 07:38:00 PM 23.5972 110.0120 285° West  Level Estimated
Wed 07:39:00 PM 23.6232 109.9026 285° West  Level Estimated
Wed 07:40:00 PM 23.6491 109.7932 285° West  Level Estimated
Wed 07:41:00 PM 23.6750 109.6837 284° West  Level Estimated
Wed 07:42:00 PM 23.7008 109.5742 284° West  Level Estimated
Wed 07:43:00 PM 23.7265 109.4647 284° West  Level Estimated
Wed 07:44:00 PM 23.7521 109.3551 284° West  Level Estimated
Wed 07:45:00 PM 23.7777 109.2455 284° West  Level Estimated
Wed 07:46:00 PM 23.8031 109.1358 284° West  Level Estimated
Wed 07:47:00 PM 23.8285 109.0261 284° West  Level Estimated
Wed 07:48:00 PM 23.8538 108.9163 284° West  Level Estimated
Wed 07:49:00 PM 23.8791 108.8065 284° West  Level Estimated
Wed 07:50:00 PM 23.9042 108.6966 284° West  Level Estimated
Wed 07:51:00 PM 23.9293 108.5867 284° West  Level Estimated
Wed 07:52:00 PM 23.9543 108.4768 284° West  Level Estimated
Wed 07:53:00 PM 23.9793 108.3668 284° West  Level Estimated
Wed 07:54:00 PM 24.0041 108.2568 284° West  Level Estimated
Wed 07:55:00 PM 24.0289 108.1468 284° West  Level Estimated
Wed 07:56:00 PM 24.0536 108.0367 284° West  Level Estimated
Wed 07:57:00 PM 24.0782 107.9265 284° West  Level Estimated
Wed 07:58:00 PM 24.1027 107.8163 284° West  Level Estimated
Wed 07:59:00 PM 24.1272 107.7061 284° West  Level Estimated
Wed 08:00:00 PM 24.1515 107.5958 284° West  Level Estimated
Wed 08:01:00 PM 24.1758 107.4855 284° West  Level Estimated
Wed 08:02:00 PM 24.2001 107.3751 284° West  Level Estimated
Wed 08:03:00 PM 24.2242 107.2647 284° West  Level Estimated
Wed 08:04:00 PM 24.2483 107.1543 283° West  Level Estimated
Wed 08:05:00 PM 24.2722 107.0438 283° West  Level Estimated
Wed 08:06:00 PM 24.2961 106.9333 283° West  Level Estimated
Wed 08:07:00 PM 24.3200 106.8227 283° West  Level Estimated
Wed 08:08:00 PM 24.3437 106.7121 283° West  Level Estimated
Wed 08:09:00 PM 24.3674 106.6015 283° West  Level Estimated
Wed 08:10:00 PM 24.3909 106.4908 283° West  Level Estimated
Wed 08:11:00 PM 24.4144 106.3801 283° West  Level Estimated
Wed 08:12:00 PM 24.4379 106.2693 283° West  Level Estimated
Wed 08:13:00 PM 24.4612 106.1585 283° West  Level Estimated
Wed 08:14:00 PM 24.4844 106.0476 283° West  Level Estimated
Wed 08:15:00 PM 24.5076 105.9367 283° West  Level Estimated
Wed 08:16:00 PM 24.5307 105.8258 283° West  Level Estimated
Wed 08:17:00 PM 24.5537 105.7148 283° West  Level Estimated
Wed 08:18:00 PM 24.5766 105.6038 283° West  Level Estimated
Wed 08:19:00 PM 24.5995 105.4927 283° West  Level Estimated
Wed 08:20:00 PM 24.6223 105.3816 283° West  Level Estimated
Wed 08:21:00 PM 24.6450 105.2705 283° West  Level Estimated
Wed 08:22:00 PM 24.6675 105.1593 283° West  Level Estimated
Wed 08:23:00 PM 24.6901 105.0481 283° West  Level Estimated
Wed 08:24:00 PM 24.7125 104.9368 283° West  Level Estimated
Wed 08:25:00 PM 24.7349 104.8255 282° West  Level Estimated
Wed 08:26:00 PM 24.7572 104.7142 282° West  Level Estimated
Wed 08:27:00 PM 24.7793 104.6028 282° West  Level Estimated
Wed 08:28:00 PM 24.8015 104.4914 282° West  Level Estimated
Wed 08:29:00 PM 24.8235 104.3799 282° West  Level Estimated
Wed 08:30:00 PM 24.8454 104.2684 282° West  Level Estimated
Wed 08:31:00 PM 24.8673 104.1569 282° West  Level Estimated
Wed 08:32:00 PM 24.8891 104.0453 282° West  Level Estimated
Wed 08:33:00 PM 24.9108 103.9337 282° West  Level Estimated
Wed 08:34:00 PM 24.9324 103.8220 282° West  Level Estimated
Wed 08:35:00 PM 24.9539 103.7103 282° West  Level Estimated
Wed 08:36:00 PM 24.9753 103.5986 282° West  Level Estimated
Wed 08:37:00 PM 24.9967 103.4868 282° West  Level Estimated
Wed 08:38:00 PM 25.0180 103.3750 282° West  Level Estimated
Wed 08:39:00 PM 25.0392 103.2632 282° West  Level Estimated
Wed 08:40:00 PM 25.0603 103.1513 282° West  Level Estimated
Wed 08:41:00 PM 25.0813 103.0393 282° West  Level Estimated
Wed 08:42:00 PM 25.1019 102.9292 282° West  Level Estimated
Wed 08:43:00 PM 25.1019 102.9292 326° Northwest  Level Estimated
Wed 08:44:00 PM 25.1019 102.9292 326° Northwest  Level Estimated
Wed 08:45:00 PM 25.1019 102.9292 326° Northwest  Level Estimated
Wed 08:46:00 PM 25.1019 102.9292 326° Northwest  Level Estimated
Wed 08:47:00 PM 25.1019 102.9292 326° Northwest  Level Estimated
Wed 08:48:00 PM 25.1019 102.9292 326° Northwest  Level Estimated
Wed 08:49:00 PM 25.1019 102.9292 326° Northwest  Level Estimated
Wed 08:50:00 PM 25.1019 102.9292 326° Northwest  Level Estimated
Wed 08:51:00 PM 25.1019 102.9292 326° Northwest  Level Estimated
Wed 08:52:00 PM 25.1019 102.9292 326° Northwest  Level Estimated
Wed 08:53:00 PM 25.1019 102.9292 326° Northwest  Level Estimated
Wed 08:54:00 PM 25.1019 102.9292 326° Northwest  Level Estimated
Wed 08:55:00 PM 25.1019 102.9292 326° Northwest  Level Estimated
Wed 08:56:00 PM 25.1019 102.9292 326° Northwest  Level Estimated
Wed 08:57:00 PM 25.1019 102.9292 326° Northwest  Level Estimated
Wed 08:58:00 PM 25.1019 102.9292 326° Northwest  Level Estimated

Login

Don't have an account? Register now (free) for customized features, flight alerts, and more!